AirNav   Phillips 66 Aviation Fuel
 
 1586 users online  

4IN5 Ball Field Airport
Bourbon, Indiana, USA

GOING TO BOURBON?


FAA INFORMATION EFFECTIVE 20 JULY 2017

Location

FAA Identifier: 4IN5
Lat/Long: 41-20-39.0000N / 086-08-54.0000W
41-20.650000N / 086-08.900000W
41.3441667 / -86.1483333
(estimated)
Elevation: 825 ft. / 251 m (estimated)
Variation: 03W (1995)
From city: 4 miles NW of BOURBON, IN
Time zone: UTC -4 (UTC -5 during Standard Time)
Zip code: 46504

Airport Operations

Airport use: Private use. Permission required prior to landing
Activation date: 09/1999
Control tower: no
ARTCC: CHICAGO CENTER
FSS: TERRE HAUTE FLIGHT SERVICE STATION
Attendance: UNATNDD
Segmented circle: no

Airport Communications

WX AWOS-3 at ASW (15 nm E): 121.125 (574-269-7035)
WX AWOS-3 at RCR (17 nm S): 118.775 (574-223-3560)
WX ASOS at GSH (19 nm NE): 121.45 (574-642-4231)

Nearby radio navigation aids

VOR radial/distance  VOR name  Freq  Var
GSHr207/12.1GOSHEN VORTAC113.7000E
OXIr087/22.6KNOX VOR/DME115.6000E
GIJr163/26.6GIPPER VORTAC115.4000E
OLKr284/(29.9)WEBSTER LAKE VOR110.4003W

 
NDB name  Hdg/Dist  Freq  Var  ID
CULVER055/13.139101WCPB -.-. .--. -...
LA PORTE111/29.535603WIUL .. ..- .-..

Airport Services

Runway Information

Runway N/S

Dimensions: 1700 x 70 ft. / 518 x 21 m
Surface: turf
RUNWAY N  RUNWAY S
Traffic pattern: leftleft
Obstructions: none32 ft. bldg, 65 ft. from runway

Airport Ownership and Management from official FAA records

Ownership: Privately-owned
Owner: DARYL BALL
4682 9B ROAD
BOURBON, IN 46504
Phone 219-342-8299
Manager: DARYL BALL
4682 9B ROAD
BOURBON, IN 46504
Phone 219-342-8299

Airport Operational Statistics

Aircraft based on the field: 1
Single engine airplanes: 1
    

Instrument Procedures

There are no published instrument procedures at 4IN5.

Some nearby airports with instrument procedures:

C65 - Plymouth Municipal Airport (7 nm W)
C03 - Nappanee Municipal Airport (11 nm NE)
KASW - Warsaw Municipal Airport (15 nm E)
KRCR - Fulton County Airport (17 nm S)
KGSH - Goshen Municipal Airport (19 nm NE)
 
Loc | Ops | Rwys | IFR | FBO | Links
Com | Nav | Svcs | Stats | Notes

City of Findlay
 
Area around 4IN5 (Ball Field Airport)
 
Road maps at: MapQuest Bing Google
 
Aerial photo
No photo
 
Sectional chart

 
Airport distance calculator
Flying to Ball Field Airport? Find the distance to fly.

From to 4IN5

Sunrise and sunset
Times for 26-Jul-2017
 Local
(UTC-4)
 Zulu
(UTC)
Morning civil twilight06:0310:03
Sunrise06:3510:35
Sunset21:0701:07
Evening civil twilight21:3901:39

Current date and time
Zulu (UTC)  26-Jul-2017 19:18:27
Local (UTC-4)  26-Jul-2017 15:18:27
 
METAR
KASW 
15nm E 
261855Z AUTO 15006KT 10SM CLR 26/18 A3008 RMK AO2
KRCR 
17nm S 
261855Z AUTO 17005KT 10SM CLR 29/18 A3008 RMK AO2
KGSH 
20nm NE 
261853Z AUTO 17006KT 10SM CLR 28/17 A3008 RMK AO2 SLP181 T02780172 $
KSBN 
23nm N 
261854Z 20009KT 10SM CLR 28/18 A3007 RMK AO2 SLP177 T02780178
KOXI 
23nm W 
261855Z AUTO 16004KT 10SM CLR 26/20 A3006 RMK AO1
KEKM 
23nm N 
261852Z 21006KT 10SM CLR 27/18 A3007 RMK AO2
TAF
KSBN 
23nm N 
261732Z 2618/2718 22007KT P6SM SCT250 FM262200 19006KT P6SM BKN200 FM270600 19005KT P6SM VCTS BKN090CB FM271200 VRB03KT P6SM OVC070
NOTAMs
Click for the latest NOTAMs
NOTAMs are issued by the DoD/FAA and will open in a separate window not controlled by AirNav.

 

 
 

Would you like to see your business listed on this page?

 If your business provides an interesting product or service to pilots, flight crews, aircraft, or users of the Ball Field Airport, you should consider listing it here.  To start the listing process, click on the button below
 
Add a business
 

Other Pages about Ball Field Airport

Update a link
 
Copyright © AirNav, LLC. All rights reserved. Privacy Policy  Contact